createdAt,value
2022-09-28T00:03:59.891Z,98473.84
2022-09-28T00:09:02.356Z,98469.03
2022-09-28T00:14:03.773Z,98470.19
2022-09-28T00:19:05.212Z,98464.34
2022-09-28T00:24:15.202Z,98459.16
2022-09-28T00:29:27.150Z,98453.13
2022-09-28T00:34:28.327Z,98445.47
2022-09-28T00:39:31.652Z,98445.69
2022-09-28T00:44:40.381Z,98445.69
2022-09-28T00:49:44.987Z,98446.50
2022-09-28T00:54:48.852Z,98440.25
2022-09-28T00:59:50.509Z,98429.81
2022-09-28T01:04:52.258Z,98429.09
2022-09-28T01:09:56.391Z,98429.38
2022-09-28T01:14:59.246Z,98421.50
2022-09-28T01:20:14.062Z,98412.50
2022-09-28T01:25:26.059Z,98416.50
2022-09-28T01:30:28.195Z,98419.16
2022-09-28T01:35:35.590Z,98415.78
2022-09-28T01:40:38.478Z,98406.47
2022-09-28T01:45:45.715Z,98404.69
2022-09-28T01:50:51.628Z,98396.25
2022-09-28T01:55:58.798Z,98401.56
2022-09-28T02:01:06.163Z,98396.84
2022-09-28T02:06:14.392Z,98390.41
2022-09-28T02:11:18.051Z,98391.00
2022-09-28T02:16:27.135Z,98390.78
2022-09-28T02:21:32.503Z,98398.50
2022-09-28T02:26:39.034Z,98390.00
2022-09-28T02:31:41.372Z,98383.72
2022-09-28T02:36:44.939Z,98386.34
2022-09-28T02:42:02.835Z,98380.38
2022-09-28T02:47:16.553Z,98372.41
2022-09-28T02:52:42.967Z,98370.66
2022-09-28T02:57:58.316Z,98360.03
2022-09-28T03:03:10.409Z,98361.59
2022-09-28T03:08:21.429Z,98352.41
2022-09-28T03:13:22.678Z,98356.91
2022-09-28T03:18:24.827Z,98351.72
2022-09-28T03:23:25.706Z,98345.25
2022-09-28T03:28:28.209Z,98339.59
2022-09-28T03:33:30.839Z,98328.72
2022-09-28T03:38:31.649Z,98333.09
2022-09-28T03:43:32.905Z,98338.72
2022-09-28T03:48:37.366Z,98344.34
2022-09-28T03:53:38.207Z,98350.19
2022-09-28T03:58:39.799Z,98343.84
2022-09-28T04:03:41.815Z,98340.50
2022-09-28T04:08:43.094Z,98333.56
2022-09-28T04:13:44.116Z,98307.81
2022-09-28T04:18:48.889Z,98307.16
2022-09-28T04:24:10.698Z,98310.91
2022-09-28T04:29:17.821Z,98303.13
2022-09-28T04:34:29.796Z,98301.34
2022-09-28T04:39:32.638Z,98298.75
2022-09-28T04:44:33.393Z,98268.28
2022-09-28T04:49:41.442Z,98267.63
2022-09-28T04:54:44.830Z,98256.25
2022-09-28T04:59:45.715Z,98254.56
2022-09-28T05:04:47.883Z,98235.09
2022-09-28T05:10:07.146Z,98244.69
2022-09-28T05:15:09.484Z,98233.97
2022-09-28T05:20:11.869Z,98237.94
2022-09-28T05:25:12.768Z,98240.47
2022-09-28T05:30:35.952Z,98242.16
2022-09-28T05:36:00.905Z,98231.69
2022-09-28T05:41:06.374Z,98228.03
2022-09-28T05:46:08.211Z,98217.47
2022-09-28T05:51:13.288Z,98215.47
2022-09-28T05:56:13.924Z,98209.22
2022-09-28T06:01:18.092Z,98196.34
2022-09-28T06:06:21.060Z,98192.34
2022-09-28T06:11:25.082Z,98168.97
2022-09-28T06:16:26.684Z,98163.69
2022-09-28T06:21:28.847Z,98152.72
2022-09-28T06:26:29.462Z,98155.72
2022-09-28T06:31:31.367Z,98147.03
2022-09-28T06:36:34.557Z,98152.25
2022-09-28T06:41:36.322Z,98155.47
2022-09-28T06:46:47.199Z,98159.84
2022-09-28T06:51:52.357Z,98146.19
2022-09-28T06:56:56.115Z,98139.41
2022-09-28T07:01:57.115Z,98154.03
2022-09-28T07:07:29.564Z,98144.59
2022-09-28T07:12:53.315Z,98146.41
2022-09-28T07:18:04.246Z,98154.06
2022-09-28T07:23:18.344Z,98157.09
2022-09-28T07:28:44.811Z,98170.72
2022-09-28T07:34:05.036Z,98184.25
2022-09-28T07:39:28.679Z,98169.75
2022-09-28T07:44:29.828Z,98152.09
2022-09-28T07:49:32.312Z,98156.25
2022-09-28T07:54:52.095Z,98162.88
2022-09-28T08:00:18.955Z,98170.22
2022-09-28T08:05:21.754Z,98167.16
2022-09-28T08:10:24.000Z,98180.41
2022-09-28T08:15:51.818Z,98187.19
2022-09-28T08:21:25.438Z,98175.06
2022-09-28T08:26:29.044Z,98179.63
2022-09-28T08:31:31.111Z,98181.31
2022-09-28T08:36:45.661Z,98188.50
2022-09-28T08:42:23.655Z,98198.81
2022-09-28T08:48:10.864Z,98194.22
2022-09-28T08:53:53.050Z,98198.59
2022-09-28T08:59:01.966Z,98195.13
2022-09-28T09:04:04.314Z,98202.84
2022-09-28T09:09:14.821Z,98209.91
2022-09-28T09:14:38.960Z,98211.03
2022-09-28T09:19:52.369Z,98197.44
2022-09-28T09:25:20.629Z,98185.19
2022-09-28T09:30:30.019Z,98183.38
2022-09-28T09:36:00.376Z,98181.72
2022-09-28T09:41:40.552Z,98178.66
2022-09-28T09:46:59.697Z,98176.13
2022-09-28T09:52:16.180Z,98174.41
2022-09-28T09:57:21.333Z,98176.72
2022-09-28T10:02:36.101Z,98166.22
2022-09-28T10:07:51.939Z,98166.69
2022-09-28T10:12:53.660Z,98158.34
2022-09-28T10:17:58.168Z,98154.72
2022-09-28T10:23:31.470Z,98152.75
2022-09-28T10:28:40.636Z,98150.25
2022-09-28T10:33:43.122Z,98143.22
2022-09-28T10:38:48.807Z,98145.56
2022-09-28T10:44:11.050Z,98141.06
2022-09-28T10:49:23.135Z,98117.59
2022-09-28T10:54:31.099Z,98126.13
2022-09-28T10:59:39.877Z,98128.06
2022-09-28T11:05:00.139Z,98125.84
2022-09-28T11:10:05.708Z,98122.38
2022-09-28T11:15:18.216Z,98116.59
2022-09-28T11:20:34.087Z,98145.09
2022-09-28T11:25:37.164Z,98137.38
2022-09-28T11:30:45.888Z,98129.88
2022-09-28T11:36:38.198Z,98128.41
2022-09-28T11:42:00.138Z,98133.25
2022-09-28T11:47:16.333Z,98132.38
2022-09-28T11:52:23.742Z,98138.97
2022-09-28T11:57:29.541Z,98145.84
2022-09-28T12:02:35.793Z,98143.41
2022-09-28T12:07:47.593Z,98146.50
2022-09-28T12:13:14.877Z,98153.97
2022-09-28T12:18:21.933Z,98156.41
2022-09-28T12:23:30.082Z,98161.28
2022-09-28T12:28:35.994Z,98164.22
2022-09-28T12:33:38.994Z,98168.13
2022-09-28T12:39:14.868Z,98171.88
2022-09-28T12:44:40.358Z,98173.22
2022-09-28T12:55:35.262Z,98183.28
2022-09-28T13:00:47.841Z,98191.84
2022-09-28T13:06:22.941Z,98203.22
2022-09-28T13:11:33.581Z,98201.16
2022-09-28T13:16:43.800Z,98216.19
2022-09-28T13:21:53.577Z,98216.34
2022-09-28T13:27:00.425Z,98222.75
2022-09-28T13:32:03.238Z,98233.34
2022-09-28T13:37:20.905Z,98238.84
2022-09-28T13:42:37.716Z,98246.03
2022-09-28T13:47:53.850Z,98239.03
2022-09-28T13:53:08.780Z,98244.69
2022-09-28T13:58:21.693Z,98267.41
2022-09-28T14:03:42.207Z,98267.91
2022-09-28T14:08:46.095Z,98277.22
2022-09-28T14:14:25.031Z,98273.69
2022-09-28T14:19:31.649Z,98285.75
2022-09-28T14:24:45.990Z,98296.00
2022-09-28T14:29:51.899Z,98307.88
2022-09-28T14:35:02.310Z,98323.69
2022-09-28T14:40:28.361Z,98325.75
2022-09-28T14:45:38.567Z,98323.00
2022-09-28T14:50:39.623Z,98321.19
2022-09-28T14:55:49.895Z,98319.69
2022-09-28T15:00:57.508Z,98323.88
2022-09-28T15:05:58.636Z,98325.53
2022-09-28T15:11:03.196Z,98328.75
2022-09-28T15:16:11.116Z,98330.06
2022-09-28T15:21:19.086Z,98332.31
2022-09-28T15:26:24.135Z,98338.56
2022-09-28T15:31:29.097Z,98349.19
2022-09-28T15:36:31.688Z,98347.28
2022-09-28T15:41:33.000Z,98355.81
2022-09-28T15:46:37.195Z,98356.72
2022-09-28T15:51:52.247Z,98369.03
2022-09-28T15:56:56.921Z,98377.59
2022-09-28T16:02:15.985Z,98378.09
2022-09-28T16:07:34.541Z,98386.78
2022-09-28T16:12:46.279Z,98386.44
2022-09-28T16:17:53.222Z,98400.09
2022-09-28T16:22:54.506Z,98396.81
2022-09-28T16:27:56.515Z,98407.06
2022-09-28T16:33:01.381Z,98424.88
2022-09-28T16:38:11.860Z,98430.47
2022-09-28T16:43:24.892Z,98429.22
2022-09-28T16:48:29.240Z,98434.63
2022-09-28T16:53:47.655Z,98432.81
2022-09-28T16:58:50.343Z,98433.00
2022-09-28T17:03:52.606Z,98436.47
2022-09-28T17:08:56.585Z,98444.72
2022-09-28T17:13:58.927Z,98441.59
2022-09-28T17:19:03.019Z,98455.59
2022-09-28T17:24:05.035Z,98456.66
2022-09-28T17:29:08.714Z,98467.69
2022-09-28T17:34:11.874Z,98470.16
2022-09-28T17:39:13.555Z,98479.59
2022-09-28T17:44:16.248Z,98473.84
2022-09-28T17:49:19.206Z,98480.25
2022-09-28T17:54:21.289Z,98482.97
2022-09-28T17:59:22.098Z,98490.91
2022-09-28T18:04:50.121Z,98484.53
2022-09-28T18:09:45.035Z,98493.69
2022-09-28T18:14:47.109Z,98506.94
2022-09-28T18:19:49.533Z,98506.59
2022-09-28T18:24:51.014Z,98502.03
2022-09-28T18:29:52.082Z,98510.72
2022-09-28T18:34:54.209Z,98511.09
2022-09-28T18:39:54.955Z,98510.69
2022-09-28T18:44:58.307Z,98508.38
2022-09-28T18:50:00.487Z,98522.94
2022-09-28T18:55:01.232Z,98523.53
2022-09-28T19:00:02.972Z,98518.31
2022-09-28T19:05:08.166Z,98530.09
2022-09-28T19:10:09.814Z,98532.41
2022-09-28T19:15:10.844Z,98525.03
2022-09-28T19:20:12.995Z,98531.09
2022-09-28T19:25:15.908Z,98534.81
2022-09-28T19:30:16.754Z,98539.31
2022-09-28T19:35:18.888Z,98533.63
2022-09-28T19:40:19.763Z,98536.19
2022-09-28T19:45:20.589Z,98533.56
2022-09-28T19:50:23.113Z,98535.31
2022-09-28T19:55:25.046Z,98534.81
2022-09-28T20:00:25.904Z,98541.09
2022-09-28T20:05:28.035Z,98541.28
2022-09-28T20:10:28.809Z,98559.31
2022-09-28T20:15:29.944Z,98560.28
2022-09-28T20:20:32.043Z,98561.34
2022-09-28T20:25:32.771Z,98566.66
2022-09-28T20:30:34.016Z,98577.88
2022-09-28T20:35:36.495Z,98588.16
2022-09-28T20:40:37.597Z,98587.41
2022-09-28T20:45:38.393Z,98588.38
2022-09-28T20:50:40.635Z,98601.22
2022-09-28T20:55:41.386Z,98605.69
2022-09-28T21:00:42.132Z,98608.31
2022-09-28T21:05:44.204Z,98615.22
2022-09-28T21:10:45.575Z,98622.09
2022-09-28T21:15:46.356Z,98624.81
2022-09-28T21:20:49.189Z,98628.44
2022-09-28T21:25:49.972Z,98630.19
2022-09-28T21:30:52.797Z,98626.09
2022-09-28T21:35:55.167Z,98641.41
2022-09-28T21:40:57.154Z,98649.16
2022-09-28T21:45:58.343Z,98651.81
2022-09-28T21:51:02.872Z,98651.88
2022-09-28T21:56:05.656Z,98657.84
2022-09-28T22:01:09.082Z,98657.91
2022-09-28T22:06:12.144Z,98648.69
2022-09-28T22:11:14.745Z,98652.19
2022-09-28T22:16:17.264Z,98654.66
2022-09-28T22:21:21.519Z,98661.50
2022-09-28T22:26:26.011Z,98664.22
2022-09-28T22:31:29.173Z,98660.00
2022-09-28T22:36:31.596Z,98665.28
2022-09-28T22:41:32.829Z,98665.28
2022-09-28T22:46:33.716Z,98669.53
2022-09-28T22:51:36.032Z,98668.84
2022-09-28T22:56:36.803Z,98676.47
2022-09-28T23:01:37.606Z,98677.44
2022-09-28T23:06:39.795Z,98685.94
2022-09-28T23:11:40.518Z,98691.88
2022-09-28T23:16:41.285Z,98680.78
2022-09-28T23:21:43.420Z,98686.78
2022-09-28T23:26:44.149Z,98688.50
2022-09-28T23:31:45.452Z,98686.03
2022-09-28T23:36:48.054Z,98688.63
2022-09-28T23:41:48.797Z,98691.22
2022-09-28T23:46:51.323Z,98695.44
2022-09-28T23:51:53.832Z,98696.34
2022-09-28T23:56:54.569Z,98698.97
